Time;durP1;ratioP1;P1;durP2;ratioP2;P2;SDS_P1;SDS_P2;PMS_P1;PMS_P2;Temp;Humidity;BMP_temperature;BMP_pressure;BME280_temperature;BME280_humidity;BME280_pressure;Samples;Min_cycle;Max_cycle;Signal;HPM_P1;HPM_P2
2022/01/25 00:15:30;;;;;;;16.03;3.37;;;24.60;99.90;;;;;;4973315;28;20256;-68
2022/01/25 00:26:22;;;;;;;15.60;3.83;;;25.40;99.90;;;;;;4953960;29;20289;-67
2022/01/25 00:29:04;;;;;;;9.70;3.60;;;25.60;99.90;;;;;;4967663;28;20218;-68
2022/01/25 00:31:34;;;;;;;9.87;3.50;;;25.70;99.90;;;;;;4973181;28;20563;-69
2022/01/25 00:34:02;;;;;;;10.67;3.80;;;25.50;99.90;;;;;;4973208;28;20182;-66
2022/01/25 00:36:30;;;;;;;10.07;3.90;;;25.40;99.90;;;;;;4973035;28;20183;-67
2022/01/25 00:38:58;;;;;;;10.33;3.57;;;25.70;99.90;;;;;;4972889;28;20314;-67
2022/01/25 00:41:26;;;;;;;9.83;3.50;;;26.30;99.90;;;;;;4972971;28;20563;-69
2022/01/25 00:43:57;;;;;;;17.23;5.53;;;26.30;99.90;;;;;;4973025;28;20183;-68
2022/01/25 00:46:25;;;;;;;10.83;4.40;;;26.50;99.90;;;;;;4972856;28;20885;-67
2022/01/25 00:49:01;;;;;;;8.90;4.53;;;26.30;99.90;;;;;;4973128;28;20254;-68
2022/01/25 00:54:25;;;;;;;8.80;5.10;;;25.50;99.90;;;;;;4972690;28;20196;-67
2022/01/25 00:56:54;;;;;;;7.97;5.57;;;25.60;99.90;;;;;;4972301;28;20234;-70
2022/01/25 00:59:25;;;;;;;9.97;5.67;;;26.30;99.90;;;;;;4972651;28;20201;-68
2022/01/25 01:01:59;;;;;;;9.77;4.83;;;26.70;99.90;;;;;;4971724;28;20187;-68
2022/01/25 01:04:30;;;;;;;8.83;4.40;;;27.30;99.90;;;;;;4972868;28;20299;-68
2022/01/25 01:07:01;;;;;;;9.77;6.20;;;27.90;99.90;;;;;;4974297;28;20716;-68
2022/01/25 01:09:32;;;;;;;9.43;5.53;;;27.80;99.90;;;;;;4975290;28;20681;-70
2022/01/25 01:12:06;;;;;;;13.57;5.43;;;27.40;99.90;;;;;;4976070;28;20730;-67
2022/01/25 01:28:47;;;;;;;8.10;5.57;;;27.00;99.90;;;;;;4976890;28;20650;-67
2022/01/25 01:31:30;;;;;;;7.50;5.30;;;29.00;99.90;;;;;;4976745;28;20198;-68
2022/01/25 01:37:37;;;;;;;10.20;6.17;;;28.90;99.90;;;;;;4975814;28;20194;-68
2022/01/25 01:42:54;;;;;;;7.67;5.57;;;28.70;99.90;;;;;;4942729;28;20242;-69
2022/01/25 01:45:23;;;;;;;9.20;5.67;;;29.40;99.90;;;;;;4975100;28;20278;-67
2022/01/25 01:47:51;;;;;;;9.53;6.03;;;29.80;99.90;;;;;;4975465;28;20719;-66
2022/01/25 01:50:32;;;;;;;9.53;6.40;;;30.30;99.90;;;;;;4975863;28;20234;-67
2022/01/25 01:53:02;;;;;;;10.10;5.60;;;30.50;99.90;;;;;;4975857;28;20195;-69
2022/01/25 01:55:31;;;;;;;8.43;5.70;;;31.20;99.90;;;;;;4974563;28;20644;-68
2022/01/25 01:57:59;;;;;;;8.30;6.03;;;31.50;99.90;;;;;;4975804;28;20239;-67
2022/01/25 02:00:38;;;;;;;11.07;5.73;;;31.50;99.90;;;;;;4975738;28;20234;-67
2022/01/25 02:03:06;;;;;;;9.73;5.67;;;30.40;99.90;;;;;;4975353;28;20249;-68
2022/01/25 02:05:34;;;;;;;11.27;6.67;;;30.00;99.90;;;;;;4975160;28;20187;-68
2022/01/25 02:08:02;;;;;;;8.23;6.20;;;29.90;99.90;;;;;;4975459;28;20179;-67
2022/01/25 02:10:31;;;;;;;10.40;6.73;;;29.10;99.90;;;;;;4975451;28;20619;-67
2022/01/25 02:12:59;;;;;;;12.17;6.10;;;28.90;99.90;;;;;;4975623;28;20178;-67
2022/01/25 02:15:27;;;;;;;8.33;5.70;;;28.80;99.90;;;;;;4975161;28;20183;-67
2022/01/25 02:23:27;;;;;;;9.13;5.93;;;28.70;99.90;;;;;;4975696;28;20237;-68
2022/01/25 02:25:59;;;;;;;13.53;4.10;;;28.30;99.90;;;;;;4975343;28;20194;-67
2022/01/25 02:28:30;;;;;;;8.07;3.00;;;28.30;99.90;;;;;;4974939;28;20739;-67
2022/01/25 02:30:58;;;;;;;10.97;3.80;;;27.70;99.90;;;;;;4975191;28;20184;-68
2022/01/25 02:33:26;;;;;;;14.97;4.13;;;27.80;99.90;;;;;;4975147;28;20188;-68
2022/01/25 02:35:56;;;;;;;10.30;3.80;;;27.50;99.90;;;;;;4975087;28;20194;-68
2022/01/25 02:38:26;;;;;;;10.73;4.33;;;27.30;99.90;;;;;;4974837;28;20629;-67
2022/01/25 02:40:55;;;;;;;9.20;4.10;;;27.30;99.90;;;;;;4974639;28;20554;-67
2022/01/25 02:43:23;;;;;;;9.20;4.27;;;27.40;99.90;;;;;;4982118;28;20187;-68
2022/01/25 02:49:03;;;;;;;7.90;4.07;;;28.10;99.90;;;;;;4974597;28;20230;-67
2022/01/25 02:51:35;;;;;;;11.73;4.73;;;28.00;99.90;;;;;;4974344;28;20179;-68
2022/01/25 02:54:04;;;;;;;12.13;4.83;;;27.80;99.90;;;;;;4974993;28;20183;-69
2022/01/25 02:56:32;;;;;;;7.80;4.57;;;27.80;99.90;;;;;;4974336;28;20187;-66
2022/01/25 02:59:00;;;;;;;7.50;3.97;;;27.90;99.90;;;;;;4974749;28;20183;-68
2022/01/25 03:01:28;;;;;;;11.67;4.70;;;28.50;99.90;;;;;;4974086;28;20266;-68
2022/01/25 03:03:56;;;;;;;11.87;5.33;;;28.70;99.90;;;;;;4955023;29;20701;-69
2022/01/25 03:06:25;;;;;;;11.30;5.00;;;28.90;99.90;;;;;;4969420;28;20656;-67
2022/01/25 03:08:53;;;;;;;10.50;5.07;;;28.80;99.90;;;;;;4974151;28;20214;-70
2022/01/25 03:11:23;;;;;;;11.53;4.90;;;28.80;99.90;;;;;;4974375;28;20179;-69
2022/01/25 03:21:59;;;;;;;10.50;4.27;;;28.70;99.90;;;;;;4993104;28;20229;-67
2022/01/25 03:24:27;;;;;;;11.57;4.50;;;28.60;99.90;;;;;;4993446;28;20525;-68
2022/01/25 03:26:54;;;;;;;10.17;5.10;;;28.50;99.90;;;;;;4993475;28;20550;-67
2022/01/25 03:29:22;;;;;;;12.80;4.97;;;28.20;99.90;;;;;;4993440;28;20331;-67
2022/01/25 03:31:50;;;;;;;10.77;4.57;;;28.40;99.90;;;;;;4993566;28;20258;-66
2022/01/25 03:34:18;;;;;;;11.53;4.37;;;28.50;99.90;;;;;;4993311;28;20190;-67
2022/01/25 03:36:45;;;;;;;8.50;4.63;;;28.50;99.90;;;;;;4992513;28;20183;-69
2022/01/25 03:39:13;;;;;;;10.43;4.93;;;28.30;99.90;;;;;;4993179;28;20214;-69
2022/01/25 03:41:40;;;;;;;10.37;4.67;;;28.30;99.90;;;;;;4993202;28;20191;-68
2022/01/25 03:44:08;;;;;;;10.90;5.07;;;28.60;99.90;;;;;;4993255;28;20201;-70
2022/01/25 03:46:54;;;;;;;9.20;4.83;;;29.10;99.90;;;;;;4992688;28;20178;-69
2022/01/25 03:52:07;;;;;;;9.07;4.80;;;29.80;99.90;;;;;;4993228;28;20240;-69
2022/01/25 03:54:35;;;;;;;8.80;4.57;;;29.80;99.90;;;;;;4993172;28;20658;-67
2022/01/25 03:57:03;;;;;;;12.13;4.60;;;29.40;99.90;;;;;;4992914;28;20182;-67
2022/01/25 03:59:30;;;;;;;9.47;4.87;;;29.20;99.90;;;;;;4992022;28;20205;-68
2022/01/25 04:01:58;;;;;;;10.63;5.50;;;29.00;99.90;;;;;;4993032;28;20644;-69
2022/01/25 04:04:26;;;;;;;13.43;4.83;;;28.90;99.90;;;;;;4992957;28;20186;-66
2022/01/25 04:06:54;;;;;;;8.77;4.37;;;28.70;99.90;;;;;;4992689;28;20647;-67
2022/01/25 04:09:21;;;;;;;9.03;4.67;;;28.70;99.90;;;;;;4992330;28;20245;-67
2022/01/25 04:11:49;;;;;;;8.40;4.30;;;29.00;99.90;;;;;;4992826;28;20194;-68
2022/01/25 04:14:16;;;;;;;9.77;4.63;;;28.50;99.90;;;;;;4992671;28;20197;-67
2022/01/25 04:19:28;;;;;;;14.33;5.47;;;28.60;99.90;;;;;;5011893;28;20344;-68
2022/01/25 04:25:13;;;;;;;11.70;5.87;;;28.60;99.90;;;;;;4973222;28;20195;-68
2022/01/25 04:27:41;;;;;;;13.97;4.83;;;29.70;99.90;;;;;;4973248;28;20194;-68
2022/01/25 04:30:09;;;;;;;9.10;4.70;;;30.10;99.90;;;;;;4992424;28;20218;-67
2022/01/25 04:32:49;;;;;;;10.67;4.83;;;30.20;99.90;;;;;;4992678;28;20186;-67
2022/01/25 04:49:23;;;;;;;10.73;5.37;;;31.10;99.90;;;;;;5016297;28;20285;-69
2022/01/25 05:23:47;;;;;;;8.40;4.13;;;28.10;99.90;;;;;;4949642;29;20746;-67
2022/01/25 05:26:14;;;;;;;12.27;4.73;;;27.80;99.90;;;;;;4937975;29;20248;-68
2022/01/25 05:28:42;;;;;;;10.40;3.70;;;27.70;99.90;;;;;;4937886;29;20303;-67
2022/01/25 05:31:10;;;;;;;9.53;3.57;;;27.90;99.90;;;;;;4937709;29;20197;-68
2022/01/25 05:33:38;;;;;;;13.97;4.13;;;28.20;99.90;;;;;;4937060;29;20185;-67
2022/01/25 05:36:06;;;;;;;12.83;4.50;;;28.50;99.90;;;;;;4937195;29;20201;-68
2022/01/25 05:38:33;;;;;;;7.40;3.70;;;28.80;99.90;;;;;;4937635;29;20189;-68
2022/01/25 05:41:03;;;;;;;9.33;3.63;;;28.80;99.90;;;;;;4937318;29;20188;-66
2022/01/25 05:46:14;;;;;;;9.87;3.93;;;28.50;99.90;;;;;;4937408;29;20181;-66
2022/01/25 05:48:42;;;;;;;7.80;3.30;;;28.10;99.90;;;;;;4937509;29;20912;-67
2022/01/25 05:51:11;;;;;;;8.17;3.33;;;27.80;99.90;;;;;;4937416;29;20278;-67
2022/01/25 05:53:42;;;;;;;13.77;3.43;;;27.70;99.90;;;;;;4936061;29;20267;-66
2022/01/25 05:56:10;;;;;;;7.80;3.00;;;27.90;99.90;;;;;;4937378;29;20200;-67
2022/01/25 05:58:38;;;;;;;6.70;3.33;;;28.00;99.90;;;;;;4937050;29;20237;-68
2022/01/25 06:01:05;;;;;;;17.03;3.40;;;27.60;99.90;;;;;;4937173;29;20191;-66
2022/01/25 06:03:33;;;;;;;10.37;3.30;;;27.50;99.90;;;;;;4936992;29;20189;-69
2022/01/25 06:06:01;;;;;;;8.40;2.50;;;27.50;99.90;;;;;;4937070;29;20521;-66
2022/01/25 06:08:29;;;;;;;10.40;3.40;;;27.60;99.90;;;;;;4936939;29;20181;-66
2022/01/25 06:10:56;;;;;;;6.23;2.47;;;27.50;99.90;;;;;;4936895;29;20276;-66
2022/01/25 06:13:24;;;;;;;9.67;2.60;;;27.30;99.90;;;;;;4936752;29;20201;-66
2022/01/25 06:15:52;;;;;;;6.00;2.80;;;27.00;99.90;;;;;;4936907;29;20200;-68
2022/01/25 06:18:19;;;;;;;7.87;2.67;;;27.20;99.90;;;;;;4936872;29;20212;-67
2022/01/25 06:20:47;;;;;;;7.27;2.20;;;27.20;99.90;;;;;;4936851;29;20271;-66
2022/01/25 06:23:15;;;;;;;7.57;2.00;;;27.70;99.90;;;;;;4935287;29;20192;-67
2022/01/25 06:25:42;;;;;;;8.83;2.43;;;28.10;99.90;;;;;;4936723;29;20271;-66
2022/01/25 06:28:10;;;;;;;10.27;2.43;;;27.90;99.90;;;;;;4937068;29;20185;-67
2022/01/25 06:30:38;;;;;;;9.23;2.37;;;27.50;99.90;;;;;;4936566;29;20299;-67
2022/01/25 06:33:09;;;;;;;10.87;2.57;;;26.90;99.90;;;;;;4936602;29;20243;-67
2022/01/25 06:35:37;;;;;;;6.33;2.03;;;26.70;99.90;;;;;;4936895;29;20297;-67
2022/01/25 06:38:05;;;;;;;9.07;2.70;;;26.50;99.90;;;;;;4937036;29;20184;-68
2022/01/25 06:40:33;;;;;;;9.63;3.00;;;26.60;99.90;;;;;;4936816;29;20549;-69
2022/01/25 06:43:00;;;;;;;7.67;2.40;;;26.60;99.90;;;;;;4936342;29;20326;-68
2022/01/25 06:45:28;;;;;;;10.17;2.20;;;26.50;99.90;;;;;;4937017;29;20187;-67
2022/01/25 06:47:56;;;;;;;13.97;3.27;;;26.60;99.90;;;;;;4935578;29;20634;-68
2022/01/25 06:50:24;;;;;;;8.70;2.30;;;26.30;99.90;;;;;;4936728;29;20280;-67
2022/01/25 06:52:52;;;;;;;9.47;2.57;;;26.20;99.90;;;;;;4936669;29;20184;-69
2022/01/25 06:55:21;;;;;;;8.43;2.70;;;26.20;99.90;;;;;;4936805;29;20191;-69
2022/01/25 06:57:48;;;;;;;7.33;2.77;;;26.40;99.90;;;;;;4936448;29;20654;-67
2022/01/25 07:00:23;;;;;;;6.63;2.13;;;26.60;99.90;;;;;;4936732;29;20184;-67
2022/01/25 07:02:51;;;;;;;8.80;2.17;;;27.00;99.90;;;;;;4936337;29;20240;-67
2022/01/25 07:05:19;;;;;;;11.67;3.30;;;26.90;99.90;;;;;;4936088;29;20189;-66
2022/01/25 07:07:47;;;;;;;5.13;2.17;;;26.30;99.90;;;;;;4938669;29;20239;-69
2022/01/25 07:10:15;;;;;;;14.87;3.03;;;26.30;99.90;;;;;;4935057;29;20228;-69
2022/01/25 07:12:43;;;;;;;6.47;2.03;;;26.20;99.90;;;;;;4934645;29;20185;-66
2022/01/25 07:15:13;;;;;;;7.63;2.30;;;26.10;99.90;;;;;;4934131;29;20196;-67
2022/01/25 07:17:41;;;;;;;6.93;2.37;;;26.00;99.90;;;;;;4936327;29;20661;-67
2022/01/25 07:20:10;;;;;;;8.83;2.20;;;25.70;99.90;;;;;;4936165;29;20271;-67
2022/01/25 07:22:40;;;;;;;8.00;2.20;;;25.60;99.90;;;;;;4936696;29;20647;-68
2022/01/25 07:25:10;;;;;;;8.00;2.20;;;25.50;99.90;;;;;;4950657;28;20232;-68
2022/01/25 07:27:39;;;;;;;7.47;3.13;;;25.40;99.90;;;;;;4935270;29;20195;-68
2022/01/25 07:30:08;;;;;;;6.47;2.07;;;25.30;99.90;;;;;;4919343;29;20224;-67
2022/01/25 07:32:39;;;;;;;9.83;2.53;;;25.20;99.90;;;;;;4935995;29;20180;-68
2022/01/25 07:35:08;;;;;;;8.07;2.63;;;25.10;99.90;;;;;;4934452;29;20192;-69
2022/01/25 07:37:36;;;;;;;8.60;2.13;;;25.00;99.90;;;;;;4934597;29;20198;-69
2022/01/25 07:40:05;;;;;;;9.73;2.57;;;24.80;99.90;;;;;;4934584;29;20295;-66
2022/01/25 07:42:36;;;;;;;7.83;2.10;;;24.60;99.90;;;;;;4936008;29;20196;-68
2022/01/25 07:45:08;;;;;;;12.60;2.83;;;24.60;99.90;;;;;;4934992;29;20193;-67
2022/01/25 07:47:37;;;;;;;9.00;2.73;;;24.50;99.90;;;;;;4919616;29;20675;-68
2022/01/25 07:50:10;;;;;;;9.73;2.30;;;24.40;99.90;;;;;;4936018;29;20631;-68
2022/01/25 07:52:38;;;;;;;6.53;2.50;;;24.30;99.90;;;;;;4935813;29;20279;-68
2022/01/25 07:55:07;;;;;;;6.50;2.30;;;24.30;99.90;;;;;;4935753;29;20692;-70
2022/01/25 07:57:35;;;;;;;7.20;2.10;;;24.20;99.90;;;;;;4935758;29;20195;-67
2022/01/25 08:00:04;;;;;;;10.97;2.10;;;24.30;99.90;;;;;;4935656;29;20618;-69
2022/01/25 08:02:32;;;;;;;5.60;2.47;;;24.20;99.90;;;;;;4935663;29;20200;-69
2022/01/25 08:05:00;;;;;;;6.80;1.87;;;24.10;99.90;;;;;;4934557;29;20191;-69
2022/01/25 08:07:27;;;;;;;7.93;2.00;;;24.10;99.90;;;;;;4935847;29;20188;-68
2022/01/25 08:09:55;;;;;;;7.07;2.00;;;24.00;99.90;;;;;;4934233;29;20226;-68
2022/01/25 08:12:23;;;;;;;6.07;1.73;;;24.10;99.90;;;;;;4934287;29;20220;-67
2022/01/25 08:14:53;;;;;;;8.70;1.93;;;24.10;99.90;;;;;;4934296;29;20189;-68
2022/01/25 08:17:21;;;;;;;8.83;2.30;;;24.20;99.90;;;;;;4934777;29;20549;-69
2022/01/25 08:19:48;;;;;;;8.53;1.80;;;24.20;99.90;;;;;;4934424;29;20191;-69
2022/01/25 08:22:18;;;;;;;8.97;2.27;;;24.10;99.90;;;;;;4935192;29;20227;-69
2022/01/25 08:24:47;;;;;;;10.83;2.00;;;24.20;99.90;;;;;;4933809;29;20253;-68
2022/01/25 08:27:22;;;;;;;10.63;2.70;;;24.10;99.90;;;;;;4935131;29;20210;-67
2022/01/25 08:29:51;;;;;;;8.40;1.97;;;24.10;99.90;;;;;;4933936;29;20208;-68
2022/01/25 08:32:20;;;;;;;4.87;1.73;;;24.00;99.90;;;;;;4918599;29;20233;-67
2022/01/25 08:34:49;;;;;;;7.70;1.80;;;23.90;99.90;;;;;;4933955;29;20184;-69
2022/01/25 08:37:17;;;;;;;10.00;2.20;;;23.80;99.90;;;;;;4934296;29;20664;-67
2022/01/25 08:39:45;;;;;;;4.13;1.87;;;23.70;99.90;;;;;;4934322;29;20229;-69
2022/01/25 08:42:13;;;;;;;5.50;1.80;;;23.80;99.90;;;;;;4933961;29;20183;-68
2022/01/25 08:44:41;;;;;;;6.67;1.80;;;23.70;99.90;;;;;;4934916;29;20677;-68
2022/01/25 08:47:09;;;;;;;5.30;1.90;;;23.80;99.90;;;;;;4936298;29;20540;-69
2022/01/25 08:49:38;;;;;;;6.40;1.90;;;23.60;99.90;;;;;;4935142;29;20691;-70
2022/01/25 08:52:07;;;;;;;5.40;1.30;;;23.60;99.90;;;;;;4935171;29;20195;-68
2022/01/25 08:54:35;;;;;;;13.23;3.10;;;23.60;99.90;;;;;;4935077;29;20301;-68
2022/01/25 08:57:04;;;;;;;7.73;1.73;;;23.70;99.90;;;;;;4934658;29;20190;-67
2022/01/25 08:59:32;;;;;;;5.13;1.60;;;23.60;99.90;;;;;;4936467;29;20674;-67
2022/01/25 09:02:03;;;;;;;11.07;1.50;;;23.60;99.90;;;;;;4935050;29;20202;-66
2022/01/25 09:04:31;;;;;;;5.73;1.50;;;23.30;99.90;;;;;;4936125;29;20176;-68
2022/01/25 09:06:59;;;;;;;7.47;1.87;;;23.30;99.90;;;;;;4935940;29;20195;-67
2022/01/25 09:09:27;;;;;;;7.63;1.93;;;23.20;99.90;;;;;;4936137;29;20225;-68
2022/01/25 09:11:56;;;;;;;8.17;1.80;;;23.20;99.90;;;;;;4934626;29;20180;-67
2022/01/25 09:14:25;;;;;;;6.87;1.53;;;23.30;99.90;;;;;;4935452;29;20262;-69
2022/01/25 09:16:53;;;;;;;11.50;1.90;;;23.20;99.90;;;;;;4934754;29;20210;-68
2022/01/25 09:19:21;;;;;;;3.90;1.60;;;23.10;99.90;;;;;;4934467;29;20192;-67
2022/01/25 09:21:49;;;;;;;7.27;1.50;;;23.10;99.90;;;;;;4934717;29;20194;-69
2022/01/25 09:24:17;;;;;;;6.57;2.07;;;23.00;99.90;;;;;;4935652;29;20251;-67
2022/01/25 09:26:45;;;;;;;10.57;2.13;;;23.00;99.90;;;;;;4936514;29;20670;-67
2022/01/25 09:29:17;;;;;;;7.33;1.73;;;23.00;99.90;;;;;;4953654;28;20689;-67
2022/01/25 09:31:45;;;;;;;6.20;1.60;;;22.90;99.90;;;;;;4951686;29;20267;-68
2022/01/25 09:34:12;;;;;;;8.17;1.80;;;22.90;99.90;;;;;;4958870;29;20182;-68
2022/01/25 09:36:40;;;;;;;6.27;1.50;;;22.80;99.90;;;;;;4940602;29;20226;-69
2022/01/25 09:39:08;;;;;;;11.37;1.97;;;22.80;99.90;;;;;;4939567;29;20231;-66
2022/01/25 09:41:36;;;;;;;7.40;1.53;;;22.70;99.90;;;;;;4939229;29;20272;-66
2022/01/25 09:44:04;;;;;;;6.50;2.07;;;22.70;99.90;;;;;;4937784;29;20236;-68
2022/01/25 09:46:33;;;;;;;5.77;1.93;;;22.70;99.90;;;;;;4938566;29;20186;-66
2022/01/25 09:49:01;;;;;;;4.53;1.80;;;22.70;99.90;;;;;;4939101;29;20217;-67
2022/01/25 09:51:29;;;;;;;11.77;2.50;;;22.60;99.90;;;;;;4939143;29;20247;-68
2022/01/25 09:53:56;;;;;;;5.63;1.53;;;22.60;99.90;;;;;;4937975;29;20182;-68
2022/01/25 09:56:24;;;;;;;8.47;1.97;;;22.60;99.90;;;;;;4938920;29;20204;-69
2022/01/25 09:58:52;;;;;;;12.03;2.20;;;22.60;99.90;;;;;;4939132;29;20176;-69
2022/01/25 10:01:31;;;;;;;8.77;2.10;;;22.70;99.90;;;;;;4922209;29;20192;-69
2022/01/25 10:04:04;;;;;;;7.80;2.07;;;22.60;99.90;;;;;;4937622;29;20186;-68
2022/01/25 10:06:34;;;;;;;7.80;1.90;;;22.60;99.90;;;;;;4938301;29;20245;-68
2022/01/25 10:09:02;;;;;;;8.07;1.70;;;22.60;99.90;;;;;;4938741;29;20209;-69
2022/01/25 10:11:29;;;;;;;9.23;1.73;;;22.50;99.90;;;;;;4938860;29;20192;-68
2022/01/25 10:13:58;;;;;;;7.10;1.70;;;22.50;99.90;;;;;;4938798;29;20183;-70
2022/01/25 10:16:38;;;;;;;5.30;1.50;;;22.60;99.90;;;;;;4937001;29;20199;-69
2022/01/25 10:19:10;;;;;;;8.60;1.57;;;22.50;99.90;;;;;;4938446;29;20219;-68
2022/01/25 10:21:40;;;;;;;6.13;1.70;;;22.50;99.90;;;;;;4938280;29;20216;-68
2022/01/25 10:24:09;;;;;;;13.60;1.90;;;22.50;99.90;;;;;;4938276;29;20694;-67
2022/01/25 10:26:40;;;;;;;5.97;1.50;;;22.40;99.90;;;;;;4936887;29;20240;-68
2022/01/25 10:29:10;;;;;;;5.17;1.50;;;22.40;99.90;;;;;;4951561;29;20223;-67
2022/01/25 10:31:43;;;;;;;10.50;1.93;;;22.40;99.90;;;;;;4957928;29;20180;-68
2022/01/25 10:34:13;;;;;;;8.57;1.90;;;22.40;99.90;;;;;;4947292;29;20201;-69
2022/01/25 10:36:47;;;;;;;5.87;1.80;;;22.40;99.90;;;;;;4937178;29;20223;-68
2022/01/25 10:39:35;;;;;;;11.43;1.90;;;22.40;99.90;;;;;;4936759;29;20191;-67
2022/01/25 10:42:27;;;;;;;5.20;1.87;;;22.50;99.90;;;;;;4937516;29;20246;-67
2022/01/25 10:45:04;;;;;;;6.20;1.53;;;22.50;99.90;;;;;;4937119;29;20254;-67
2022/01/25 10:47:48;;;;;;;6.50;1.77;;;22.50;99.90;;;;;;4937842;29;20194;-67
2022/01/25 10:50:35;;;;;;;6.93;1.60;;;22.50;99.90;;;;;;4937745;29;20299;-67
2022/01/25 10:53:15;;;;;;;6.57;1.50;;;22.50;99.90;;;;;;4937481;29;20207;-67
2022/01/25 10:55:54;;;;;;;8.93;2.23;;;22.50;99.90;;;;;;4937689;29;20262;-67
2022/01/25 10:58:23;;;;;;;9.80;2.00;;;22.60;99.90;;;;;;4937881;29;20206;-67
2022/01/25 11:00:52;;;;;;;9.10;1.50;;;22.60;99.90;;;;;;4937447;29;20173;-67
2022/01/25 11:03:35;;;;;;;8.23;1.83;;;22.60;99.90;;;;;;4937386;29;20177;-67
2022/01/25 11:06:20;;;;;;;6.80;2.00;;;22.60;99.90;;;;;;4937241;29;20185;-65
2022/01/25 11:08:50;;;;;;;6.53;1.83;;;22.50;99.90;;;;;;4937575;29;20212;-66
2022/01/25 11:11:34;;;;;;;10.00;2.10;;;22.50;99.90;;;;;;4937096;29;20187;-66
2022/01/25 11:16:50;;;;;;;6.90;1.60;;;22.50;99.90;;;;;;4936410;29;20247;-67
2022/01/25 11:19:18;;;;;;;5.83;1.70;;;22.50;99.90;;;;;;4946001;29;20192;-65
2022/01/25 11:21:46;;;;;;;7.20;1.70;;;22.50;99.90;;;;;;4945861;29;20191;-66
2022/01/25 11:24:15;;;;;;;10.60;1.60;;;22.50;99.90;;;;;;4944614;29;20693;-65
2022/01/25 11:26:44;;;;;;;7.63;2.00;;;22.50;99.90;;;;;;4943146;29;20277;-65
2022/01/25 11:29:12;;;;;;;8.13;1.47;;;22.50;99.90;;;;;;4947003;29;20272;-65
2022/01/25 11:31:46;;;;;;;8.00;1.80;;;22.50;99.90;;;;;;4945308;29;20677;-65
2022/01/25 11:34:15;;;;;;;5.80;1.60;;;22.50;99.90;;;;;;4939572;29;20192;-66
2022/01/25 11:36:55;;;;;;;9.37;1.63;;;22.50;99.90;;;;;;4936545;29;20180;-66
2022/01/25 11:39:25;;;;;;;7.17;1.70;;;22.50;99.90;;;;;;4936812;29;20188;-66
2022/01/25 11:42:04;;;;;;;10.70;1.77;;;22.40;99.90;;;;;;4936638;29;20552;-67
2022/01/25 11:44:33;;;;;;;5.47;1.70;;;22.40;99.90;;;;;;4936932;29;20177;-67
2022/01/25 11:47:13;;;;;;;10.23;2.10;;;22.30;99.90;;;;;;4936347;29;20332;-67
2022/01/25 11:49:54;;;;;;;7.70;2.13;;;22.30;99.90;;;;;;4936295;29;20567;-68
2022/01/25 11:52:24;;;;;;;10.70;2.30;;;22.20;99.90;;;;;;4935731;29;20179;-66
2022/01/25 11:55:11;;;;;;;5.93;1.90;;;22.20;99.90;;;;;;4936750;29;20216;-66
2022/01/25 11:57:47;;;;;;;10.37;3.20;;;22.10;99.90;;;;;;4936108;29;20178;-66
2022/01/25 12:00:15;;;;;;;5.07;1.80;;;22.00;99.90;;;;;;4936388;29;20188;-65
2022/01/25 12:02:50;;;;;;;6.47;2.20;;;22.00;99.90;;;;;;4936292;29;20531;-66
2022/01/25 12:05:33;;;;;;;8.27;2.60;;;22.00;99.90;;;;;;4935762;29;20189;-68
2022/01/25 12:08:15;;;;;;;10.97;3.40;;;22.00;99.90;;;;;;4929879;29;20682;-67
2022/01/25 12:10:54;;;;;;;6.23;2.83;;;22.00;99.90;;;;;;4935921;29;20223;-67
2022/01/25 12:13:28;;;;;;;6.27;2.10;;;21.90;99.90;;;;;;4935878;29;20191;-66
2022/01/25 12:16:27;;;;;;;9.27;1.93;;;21.90;99.90;;;;;;4935411;29;20266;-65
2022/01/25 12:19:00;;;;;;;3.50;1.53;;;21.90;99.90;;;;;;4935772;29;20178;-67
2022/01/25 12:21:50;;;;;;;7.03;2.10;;;21.90;99.90;;;;;;4935276;29;20598;-67
2022/01/25 12:24:45;;;;;;;10.50;2.77;;;22.00;99.90;;;;;;4941091;29;20233;-68
2022/01/25 12:27:22;;;;;;;7.47;2.00;;;22.00;99.90;;;;;;4918978;29;20325;-66
2022/01/25 12:30:13;;;;;;;8.40;2.67;;;22.00;99.90;;;;;;4935597;29;20295;-67
2022/01/25 12:33:04;;;;;;;11.93;1.70;;;22.00;99.90;;;;;;4935588;29;20593;-68
2022/01/25 12:35:52;;;;;;;7.27;2.40;;;22.00;99.90;;;;;;4935419;29;20191;-67
2022/01/25 12:38:25;;;;;;;6.70;1.60;;;22.00;99.90;;;;;;4935697;29;20268;-68
2022/01/25 12:41:00;;;;;;;8.17;2.03;;;22.00;99.90;;;;;;4935833;29;20172;-68
2022/01/25 12:43:55;;;;;;;9.23;2.23;;;22.00;99.90;;;;;;4921001;29;20275;-68
2022/01/25 12:46:33;;;;;;;6.60;1.93;;;21.90;99.90;;;;;;4935645;29;20536;-67
2022/01/25 12:49:10;;;;;;;6.00;2.20;;;21.90;99.90;;;;;;4915693;29;20610;-67
2022/01/25 12:51:41;;;;;;;5.50;1.93;;;21.80;99.90;;;;;;4917754;29;20181;-67
2022/01/25 12:54:11;;;;;;;9.73;2.17;;;21.80;99.90;;;;;;4934272;29;20191;-67
2022/01/25 12:56:50;;;;;;;10.50;2.07;;;21.70;99.90;;;;;;4936151;29;20268;-68
2022/01/25 12:59:22;;;;;;;9.40;1.90;;;21.70;99.90;;;;;;4934772;29;20191;-68
2022/01/25 13:01:52;;;;;;;10.17;1.97;;;21.60;99.90;;;;;;4936054;29;20181;-67
2022/01/25 13:04:19;;;;;;;6.60;1.63;;;21.60;99.90;;;;;;4938884;29;20189;-67
2022/01/25 13:06:52;;;;;;;9.43;1.90;;;21.60;99.90;;;;;;4939218;29;20186;-68
2022/01/25 13:09:28;;;;;;;7.30;1.90;;;21.60;99.90;;;;;;4939170;29;20717;-67
2022/01/25 13:17:25;;;;;;;5.53;1.90;;;21.50;99.90;;;;;;4939541;29;20172;-67
2022/01/25 13:19:58;;;;;;;9.07;1.70;;;21.50;99.90;;;;;;4939353;29;20195;-66
2022/01/25 13:22:30;;;;;;;9.33;2.13;;;21.60;99.90;;;;;;4938717;29;20192;-68
2022/01/25 13:25:54;;;;;;;6.53;2.07;;;21.60;99.90;;;;;;4938635;29;20224;-66
2022/01/25 13:27:52;;;;;;;6.03;2.13;;;21.60;99.90;;;;;;4935216;29;20212;-67
2022/01/25 13:33:10;;;;;;;7.13;2.13;;;21.70;99.90;;;;;;4939242;29;20243;-68
2022/01/25 13:35:41;;;;;;;7.03;1.73;;;21.70;99.90;;;;;;4938773;29;20193;-67
2022/01/25 13:38:17;;;;;;;7.40;2.13;;;21.80;99.90;;;;;;4938985;29;20530;-67
2022/01/25 13:45:43;;;;;;;5.60;2.10;;;21.80;99.90;;;;;;4938770;29;20678;-68
2022/01/25 13:46:22;;;;;;;11.50;3.07;;;21.80;99.90;;;;;;4938622;29;20182;-68
2022/01/25 13:48:57;;;;;;;8.47;2.63;;;21.80;99.90;;;;;;4938538;29;20669;-68
2022/01/25 13:51:28;;;;;;;5.77;2.40;;;21.80;99.90;;;;;;4938907;29;20199;-68
2022/01/25 13:54:01;;;;;;;6.47;2.50;;;21.80;99.90;;;;;;4938724;29;20191;-68
2022/01/25 13:56:32;;;;;;;6.07;2.03;;;21.80;99.90;;;;;;4938365;29;20197;-67
2022/01/25 13:59:01;;;;;;;10.93;2.30;;;21.80;99.90;;;;;;4938663;29;20207;-67
2022/01/25 14:01:31;;;;;;;8.33;2.00;;;21.70;99.90;;;;;;4938327;29;20215;-68
2022/01/25 14:04:11;;;;;;;11.33;2.10;;;21.70;99.90;;;;;;4938394;29;20665;-68
2022/01/25 14:06:41;;;;;;;10.33;2.30;;;21.70;99.90;;;;;;4938209;29;20189;-67
2022/01/25 14:09:21;;;;;;;6.37;2.17;;;21.60;99.90;;;;;;4938387;29;20618;-67
2022/01/25 14:21:32;;;;;;;7.77;1.80;;;21.60;99.90;;;;;;4937062;29;20193;-68
2022/01/25 14:26:05;;;;;;;9.33;1.50;;;21.40;99.90;;;;;;4937912;29;20335;-68
2022/01/25 14:28:40;;;;;;;5.30;1.83;;;21.40;99.90;;;;;;4938090;29;20189;-68
2022/01/25 14:31:25;;;;;;;6.13;1.63;;;21.30;99.90;;;;;;4937837;29;20207;-67
2022/01/25 14:33:59;;;;;;;9.80;2.10;;;21.20;99.90;;;;;;4938433;29;20177;-68
2022/01/25 14:36:28;;;;;;;7.60;1.50;;;21.10;99.90;;;;;;4937372;29;20207;-68
2022/01/25 14:38:58;;;;;;;16.53;3.20;;;21.10;99.90;;;;;;4937732;29;20185;-68
2022/01/25 14:41:32;;;;;;;7.43;2.27;;;21.00;99.90;;;;;;4938007;29;20272;-68
2022/01/25 14:44:13;;;;;;;8.07;2.20;;;21.00;99.90;;;;;;4937511;29;20195;-68
2022/01/25 14:46:52;;;;;;;11.83;2.20;;;21.00;99.90;;;;;;4937441;29;20193;-68
2022/01/25 14:49:31;;;;;;;7.97;2.20;;;20.90;99.90;;;;;;4937645;29;20200;-68
2022/01/25 14:52:06;;;;;;;7.53;2.20;;;20.90;99.90;;;;;;4937286;29;20176;-68
2022/01/25 14:54:37;;;;;;;7.00;2.30;;;20.90;99.90;;;;;;4937519;29;20207;-68
2022/01/25 14:57:18;;;;;;;6.80;2.00;;;21.00;99.90;;;;;;4937406;29;20191;-67
2022/01/25 14:59:47;;;;;;;11.20;2.77;;;20.90;99.90;;;;;;4937184;29;20196;-67
2022/01/25 15:02:21;;;;;;;8.20;2.37;;;20.90;99.90;;;;;;4937411;29;20555;-67
2022/01/25 15:04:58;;;;;;;9.70;2.00;;;20.90;99.90;;;;;;4937176;29;20188;-67
2022/01/25 15:07:34;;;;;;;7.27;2.30;;;21.00;99.90;;;;;;4937113;29;20187;-67
2022/01/25 15:10:05;;;;;;;7.33;2.10;;;20.90;99.90;;;;;;4937314;29;20217;-66
2022/01/25 15:15:15;;;;;;;10.27;2.57;;;21.00;99.90;;;;;;4937361;29;20659;-67
2022/01/25 15:17:43;;;;;;;9.87;2.50;;;21.00;99.90;;;;;;4936880;29;20196;-67
2022/01/25 15:20:13;;;;;;;11.07;2.30;;;21.00;99.90;;;;;;4937074;29;20177;-68
2022/01/25 15:22:43;;;;;;;6.37;1.87;;;21.00;99.90;;;;;;4937153;29;20180;-69
2022/01/25 15:25:14;;;;;;;8.27;2.20;;;21.10;99.90;;;;;;4936552;29;20697;-67
2022/01/25 15:27:41;;;;;;;10.67;2.87;;;21.10;99.90;;;;;;4937071;29;20196;-68
2022/01/25 15:30:10;;;;;;;10.20;2.97;;;21.10;99.90;;;;;;4936332;29;20588;-69
2022/01/25 15:32:37;;;;;;;8.40;2.20;;;21.20;99.90;;;;;;4936954;29;20248;-69